createdAt,value
2022-12-27T00:00:53.549Z,101659.72
2022-12-27T00:03:20.585Z,101648.81
2022-12-27T00:05:48.264Z,101659.44
2022-12-27T00:08:16.714Z,101662.06
2022-12-27T00:10:43.814Z,101654.50
2022-12-27T00:13:10.675Z,101661.69
2022-12-27T00:15:37.612Z,101652.81
2022-12-27T00:18:04.791Z,101659.06
2022-12-27T00:20:31.707Z,101654.78
2022-12-27T00:23:00.771Z,101658.66
2022-12-27T00:25:29.005Z,101661.97
2022-12-27T00:27:55.891Z,101660.72
2022-12-27T00:30:22.824Z,101673.63
2022-12-27T00:32:49.694Z,101668.50
2022-12-27T00:35:16.765Z,101666.69
2022-12-27T00:37:43.683Z,101675.41
2022-12-27T00:40:12.081Z,101672.25
2022-12-27T00:42:40.317Z,101682.59
2022-12-27T00:45:08.984Z,101682.44
2022-12-27T00:47:35.834Z,101679.41
2022-12-27T00:50:02.866Z,101686.34
2022-12-27T00:52:29.733Z,101691.44
2022-12-27T00:54:56.585Z,101677.19
2022-12-27T00:57:23.450Z,101682.19
2022-12-27T00:59:51.632Z,101686.31
2022-12-27T01:02:18.553Z,101685.22
2022-12-27T01:04:45.489Z,101688.78
2022-12-27T01:07:12.370Z,101683.00
2022-12-27T01:09:39.239Z,101681.34
2022-12-27T01:12:06.178Z,101687.59
2022-12-27T01:14:33.392Z,101684.13
2022-12-27T01:17:01.632Z,101687.69
2022-12-27T01:19:28.793Z,101687.69
2022-12-27T01:21:55.715Z,101686.34
2022-12-27T01:24:22.930Z,101696.69
2022-12-27T01:26:49.778Z,101689.66
2022-12-27T01:29:16.641Z,101698.19
2022-12-27T01:31:43.548Z,101701.81
2022-12-27T01:34:11.782Z,101699.88
2022-12-27T01:36:38.676Z,101699.59
2022-12-27T01:39:05.601Z,101683.53
2022-12-27T01:41:55.126Z,101691.13
2022-12-27T01:44:56.553Z,101695.16
2022-12-27T01:47:45.882Z,101691.56
2022-12-27T01:50:26.270Z,101705.66
2022-12-27T01:53:02.435Z,101699.88
2022-12-27T01:55:37.027Z,101705.97
2022-12-27T01:58:11.559Z,101711.06
2022-12-27T02:00:41.473Z,101712.16
2022-12-27T02:03:08.458Z,101713.84
2022-12-27T02:05:41.582Z,101706.75
2022-12-27T02:08:28.578Z,101710.81
2022-12-27T02:10:57.327Z,101707.75
2022-12-27T02:13:25.006Z,101708.44
2022-12-27T02:15:51.925Z,101708.16
2022-12-27T02:18:19.456Z,101708.16
2022-12-27T02:21:31.529Z,101717.28
2022-12-27T02:24:21.263Z,101710.22
2022-12-27T02:27:01.101Z,101714.53
2022-12-27T02:29:56.433Z,101725.03
2022-12-27T02:32:30.354Z,101723.78
2022-12-27T02:35:08.467Z,101725.72
2022-12-27T02:37:42.350Z,101722.81
2022-12-27T02:40:31.669Z,101713.56
2022-12-27T02:43:17.013Z,101723.09
2022-12-27T02:46:21.335Z,101718.94
2022-12-27T02:49:12.634Z,101715.50
2022-12-27T02:52:16.390Z,101721.31
2022-12-27T02:55:12.308Z,101714.56
2022-12-27T02:57:52.085Z,101712.34
2022-12-27T03:00:41.811Z,101703.34
2022-12-27T03:03:44.422Z,101720.06
2022-12-27T03:06:50.814Z,101713.84
2022-12-27T03:10:07.389Z,101719.91
2022-12-27T03:13:24.716Z,101719.22
2022-12-27T03:16:13.473Z,101718.53
2022-12-27T03:18:57.076Z,101720.34
2022-12-27T03:21:56.416Z,101723.69
2022-12-27T03:24:51.330Z,101732.25
2022-12-27T03:27:28.259Z,101731.25
2022-12-27T03:30:17.605Z,101719.78
2022-12-27T03:33:10.386Z,101739.00
2022-12-27T03:36:06.641Z,101736.38
2022-12-27T03:38:43.464Z,101735.13
2022-12-27T03:41:36.519Z,101749.50
2022-12-27T03:44:23.632Z,101742.00
2022-12-27T03:46:56.651Z,101743.41
2022-12-27T03:49:32.917Z,101742.81
2022-12-27T03:52:10.954Z,101735.50
2022-12-27T03:54:40.805Z,101739.34
2022-12-27T03:57:13.453Z,101744.47
2022-12-27T03:59:40.444Z,101741.00
2022-12-27T04:02:07.938Z,101752.63
2022-12-27T04:04:35.560Z,101740.75
2022-12-27T04:07:05.117Z,101747.53
2022-12-27T04:09:50.907Z,101749.03
2022-12-27T04:12:36.184Z,101751.50
2022-12-27T04:15:22.339Z,101746.25
2022-12-27T04:18:07.789Z,101753.47
2022-12-27T04:20:53.279Z,101755.41
2022-12-27T04:23:40.379Z,101748.75
2022-12-27T04:26:25.798Z,101754.84
2022-12-27T04:29:11.440Z,101745.16
2022-12-27T04:31:56.915Z,101755.69
2022-12-27T04:34:44.889Z,101758.47
2022-12-27T04:37:15.895Z,101756.63
2022-12-27T04:40:09.223Z,101761.78
2022-12-27T04:42:54.732Z,101764.94
2022-12-27T04:45:40.704Z,101767.56
2022-12-27T04:48:31.638Z,101776.00
2022-12-27T04:51:18.199Z,101778.03
2022-12-27T04:54:03.694Z,101791.06
2022-12-27T04:56:31.984Z,101784.69
2022-12-27T04:59:17.288Z,101780.25
2022-12-27T05:02:02.908Z,101784.38
2022-12-27T05:04:30.769Z,101792.84
2022-12-27T05:06:59.004Z,101789.94
2022-12-27T05:09:45.000Z,101795.03
2022-12-27T05:12:31.804Z,101801.13
2022-12-27T05:14:58.714Z,101811.63
2022-12-27T05:17:25.563Z,101821.16
2022-12-27T05:19:52.402Z,101819.78
2022-12-27T05:22:54.679Z,101822.13
2022-12-27T05:25:39.984Z,101834.44
2022-12-27T05:28:11.626Z,101834.44
2022-12-27T05:30:42.022Z,101828.91
2022-12-27T05:33:09.229Z,101831.22
2022-12-27T05:35:36.165Z,101828.59
2022-12-27T05:38:04.074Z,101834.97
2022-12-27T05:40:31.239Z,101849.22
2022-12-27T05:42:59.411Z,101840.66
2022-12-27T05:45:28.590Z,101858.25
2022-12-27T05:47:56.062Z,101842.19
2022-12-27T05:50:23.178Z,101840.25
2022-12-27T05:52:50.282Z,101846.22
2022-12-27T05:55:17.490Z,101846.06
2022-12-27T05:57:44.384Z,101856.72
2022-12-27T06:00:13.078Z,101854.91
2022-12-27T06:02:42.413Z,101856.72
2022-12-27T06:05:10.712Z,101855.75
2022-12-27T06:07:39.007Z,101853.09
2022-12-27T06:10:09.212Z,101864.63
2022-12-27T06:12:37.363Z,101862.94
2022-12-27T06:15:06.695Z,101864.06
2022-12-27T06:17:34.277Z,101867.63
2022-12-27T06:20:02.980Z,101874.72
2022-12-27T06:22:29.896Z,101868.47
2022-12-27T06:24:56.800Z,101868.63
2022-12-27T06:27:23.699Z,101868.47
2022-12-27T06:29:50.564Z,101877.75
2022-12-27T06:32:17.720Z,101891.28
2022-12-27T06:34:44.824Z,101890.88
2022-12-27T06:37:13.072Z,101895.72
2022-12-27T06:39:40.495Z,101897.78
2022-12-27T06:42:07.454Z,101901.13
2022-12-27T06:44:34.347Z,101892.53
2022-12-27T06:47:01.490Z,101896.00
2022-12-27T06:49:29.222Z,101893.53
2022-12-27T06:51:59.737Z,101895.06
2022-12-27T06:54:29.239Z,101898.63
2022-12-27T06:56:56.798Z,101898.38
2022-12-27T06:59:23.829Z,101901.41
2022-12-27T07:01:50.917Z,101907.78
2022-12-27T07:04:17.931Z,101914.94
2022-12-27T07:06:44.934Z,101923.13
2022-12-27T07:09:11.804Z,101931.97
2022-12-27T07:11:40.074Z,101935.72
2022-12-27T07:14:10.578Z,101933.22
2022-12-27T07:16:38.223Z,101941.78
2022-12-27T07:19:05.253Z,101953.69
2022-12-27T07:21:32.630Z,101946.50
2022-12-27T07:23:59.652Z,101952.59
2022-12-27T07:26:30.160Z,101962.00
2022-12-27T07:29:01.201Z,101966.97
2022-12-27T07:31:31.477Z,101966.97
2022-12-27T07:34:01.417Z,101973.06
2022-12-27T07:36:33.564Z,101968.91
2022-12-27T07:39:00.497Z,101978.84
2022-12-27T07:41:27.525Z,101994.09
2022-12-27T07:43:55.613Z,101994.63
2022-12-27T07:46:26.493Z,101995.19
2022-12-27T07:48:55.212Z,102000.69
2022-12-27T07:51:23.508Z,102003.31
2022-12-27T07:53:51.262Z,102013.13
2022-12-27T07:56:25.826Z,102019.34
2022-12-27T07:58:55.771Z,102018.66
2022-12-27T08:01:27.016Z,102014.25
2022-12-27T08:03:54.460Z,102021.03
2022-12-27T08:06:24.382Z,102017.56
2022-12-27T08:08:53.968Z,102030.00
2022-12-27T08:11:21.303Z,102034.16
2022-12-27T08:13:48.685Z,102031.53
2022-12-27T08:16:19.109Z,102038.31
2022-12-27T08:18:47.856Z,102039.16
2022-12-27T08:21:15.114Z,102030.28
2022-12-27T08:23:42.369Z,102030.97
2022-12-27T08:26:09.538Z,102029.19
2022-12-27T08:28:37.244Z,102031.69
2022-12-27T08:31:07.295Z,102039.59
2022-12-27T08:33:34.967Z,102038.34
2022-12-27T08:36:53.489Z,102031.97
2022-12-27T08:38:55.214Z,102042.34
2022-12-27T08:41:22.972Z,102039.47
2022-12-27T08:43:49.950Z,102040.16
2022-12-27T08:46:18.708Z,102032.00
2022-12-27T08:48:48.492Z,102051.09
2022-12-27T08:51:26.612Z,102055.25
2022-12-27T08:53:58.576Z,102062.47
2022-12-27T08:56:25.747Z,102060.78
2022-12-27T08:58:52.801Z,102073.00
2022-12-27T09:01:20.148Z,102077.69
2022-12-27T09:03:47.110Z,102077.44
2022-12-27T09:06:18.825Z,102080.06
2022-12-27T09:08:47.621Z,102087.69
2022-12-27T09:11:17.663Z,102083.38
2022-12-27T09:13:46.040Z,102093.63
2022-12-27T09:16:15.721Z,102095.97
2022-12-27T09:18:43.847Z,102092.13
2022-12-27T09:21:14.102Z,102099.72
2022-12-27T09:23:43.476Z,102098.78
2022-12-27T09:26:13.398Z,102106.25
2022-12-27T09:28:41.745Z,102105.16
2022-12-27T09:31:11.369Z,102113.72
2022-12-27T09:33:38.835Z,102115.41
2022-12-27T09:36:09.873Z,102113.19
2022-12-27T09:38:38.154Z,102117.03
2022-12-27T09:41:19.955Z,102111.78
2022-12-27T09:44:02.877Z,102108.88
2022-12-27T09:46:39.906Z,102109.81
2022-12-27T09:49:12.540Z,102120.31
2022-12-27T09:51:48.606Z,102111.91
2022-12-27T09:54:25.462Z,102110.63
2022-12-27T09:57:19.044Z,102114.78
2022-12-27T09:59:48.730Z,102120.63
2022-12-27T10:02:21.921Z,102125.56
2022-12-27T10:05:18.992Z,102123.34
2022-12-27T10:07:55.566Z,102122.78
2022-12-27T10:10:40.324Z,102121.38
2022-12-27T10:13:25.210Z,102118.19
2022-12-27T10:16:03.908Z,102111.59
2022-12-27T10:18:48.738Z,102125.53
2022-12-27T10:21:22.667Z,102123.16
2022-12-27T10:23:56.378Z,102124.81
2022-12-27T10:26:24.075Z,102127.84
2022-12-27T10:29:00.684Z,102120.31
2022-12-27T10:31:31.109Z,102127.25
2022-12-27T10:34:00.056Z,102124.44
2022-12-27T10:36:30.869Z,102133.38
2022-12-27T10:38:58.035Z,102136.69
2022-12-27T10:41:38.614Z,102138.19
2022-12-27T10:44:11.521Z,102139.84
2022-12-27T10:46:42.594Z,102142.47
2022-12-27T10:49:24.489Z,102146.09
2022-12-27T10:51:55.778Z,102154.44
2022-12-27T10:54:26.401Z,102151.38
2022-12-27T10:56:54.822Z,102152.34
2022-12-27T10:59:25.984Z,102160.84
2022-12-27T11:02:17.568Z,102164.75
2022-12-27T11:04:59.689Z,102162.50
2022-12-27T11:07:31.280Z,102160.84
2022-12-27T11:10:14.134Z,102146.09
2022-12-27T11:12:57.749Z,102148.56
2022-12-27T11:15:28.062Z,102151.88
2022-12-27T11:18:00.864Z,102152.44
2022-12-27T11:20:30.757Z,102157.53
2022-12-27T11:23:03.782Z,102168.50
2022-12-27T11:25:31.908Z,102169.31
2022-12-27T11:28:04.718Z,102173.31
2022-12-27T11:30:37.236Z,102170.25
2022-12-27T11:33:24.294Z,102177.56
2022-12-27T11:35:57.333Z,102164.78
2022-12-27T11:38:29.295Z,102180.91
2022-12-27T11:41:04.372Z,102174.44
2022-12-27T11:43:38.631Z,102184.44
2022-12-27T11:46:26.569Z,102180.28
2022-12-27T11:48:59.645Z,102173.97
2022-12-27T11:51:58.965Z,102172.03
2022-12-27T11:55:03.724Z,102172.84
2022-12-27T11:58:02.999Z,102168.53
2022-12-27T12:00:49.469Z,102172.16
2022-12-27T12:04:04.547Z,102165.50
2022-12-27T12:06:52.039Z,102165.25
2022-12-27T12:09:45.071Z,102165.81
2022-12-27T12:12:52.151Z,102167.13
2022-12-27T12:16:00.137Z,102173.63
2022-12-27T12:19:04.212Z,102174.34
2022-12-27T12:21:40.395Z,102170.81
2022-12-27T12:25:03.357Z,102166.28
2022-12-27T12:27:58.458Z,102165.06
2022-12-27T12:31:00.347Z,102167.66
2022-12-27T12:34:01.765Z,102159.66
2022-12-27T12:36:58.422Z,102158.44
2022-12-27T12:39:53.390Z,102150.00
2022-12-27T12:42:26.095Z,102155.94
2022-12-27T12:45:24.707Z,102158.44
2022-12-27T12:48:20.417Z,102151.06
2022-12-27T12:51:30.689Z,102156.00
2022-12-27T12:54:14.843Z,102150.44
2022-12-27T12:57:06.258Z,102156.72
2022-12-27T13:00:28.570Z,102151.88
2022-12-27T13:03:35.015Z,102153.69
2022-12-27T13:06:22.655Z,102154.53
2022-12-27T13:09:04.279Z,102151.72
2022-12-27T13:11:48.310Z,102161.00
2022-12-27T13:14:40.922Z,102153.47
2022-12-27T13:17:16.623Z,102152.69
2022-12-27T13:20:14.308Z,102146.69
2022-12-27T13:23:02.331Z,102149.66
2022-12-27T13:25:42.858Z,102145.44
2022-12-27T13:28:32.453Z,102139.88
2022-12-27T13:31:09.410Z,102132.34
2022-12-27T13:33:54.093Z,102132.03
2022-12-27T13:36:31.292Z,102126.75
2022-12-27T13:39:27.898Z,102130.38
2022-12-27T13:42:34.896Z,102134.81
2022-12-27T13:45:18.388Z,102119.81
2022-12-27T13:48:13.197Z,102130.38
2022-12-27T13:51:12.638Z,102107.38
2022-12-27T13:54:15.942Z,102106.84
2022-12-27T13:56:55.511Z,102114.78
2022-12-27T14:00:01.576Z,102104.81
2022-12-27T14:03:18.833Z,102108.91
2022-12-27T14:06:29.718Z,102102.78
2022-12-27T14:09:30.666Z,102101.34
2022-12-27T14:12:42.836Z,102100.19
2022-12-27T14:15:18.229Z,102100.06
2022-12-27T14:17:57.283Z,102101.56
2022-12-27T14:20:50.736Z,102105.19
2022-12-27T14:23:55.860Z,102108.25
2022-12-27T14:27:06.388Z,102101.34
2022-12-27T14:30:25.556Z,102097.31
2022-12-27T14:33:47.165Z,102114.94
2022-12-27T14:36:57.375Z,102109.66
2022-12-27T14:40:09.380Z,102110.38
2022-12-27T14:43:20.630Z,102111.06
2022-12-27T14:46:43.506Z,102103.28
2022-12-27T14:50:00.215Z,102106.34
2022-12-27T14:53:21.492Z,102101.69
2022-12-27T14:56:07.209Z,102097.38
2022-12-27T14:59:23.415Z,102107.81
2022-12-27T15:02:04.561Z,102098.91
2022-12-27T15:05:06.273Z,102096.28
2022-12-27T15:08:04.872Z,102086.56
2022-12-27T15:11:06.238Z,102092.69
2022-12-27T15:13:56.645Z,102089.38
2022-12-27T15:16:41.424Z,102094.25
2022-12-27T15:19:33.010Z,102098.13
2022-12-27T15:22:17.144Z,102093.47
2022-12-27T15:25:00.522Z,102085.59
2022-12-27T15:27:37.304Z,102084.81
2022-12-27T15:30:29.591Z,102087.38
2022-12-27T15:33:15.786Z,102089.44
2022-12-27T15:35:56.503Z,102084.66
2022-12-27T15:38:48.322Z,102079.56
2022-12-27T15:41:50.124Z,102081.66
2022-12-27T15:44:47.476Z,102077.50
2022-12-27T15:47:56.448Z,102073.66
2022-12-27T15:50:39.220Z,102072.94
2022-12-27T15:54:03.102Z,102066.34
2022-12-27T15:57:17.320Z,102070.50
2022-12-27T15:59:51.053Z,102060.41
2022-12-27T16:02:32.122Z,102061.34
2022-12-27T16:05:12.914Z,102054.03
2022-12-27T16:07:46.778Z,102049.47
2022-12-27T16:10:48.178Z,102056.69
2022-12-27T16:13:42.835Z,102051.16
2022-12-27T16:16:56.335Z,102049.75
2022-12-27T16:20:01.149Z,102043.09
2022-12-27T16:22:37.531Z,102043.53
2022-12-27T16:25:30.578Z,102045.63
2022-12-27T16:28:04.737Z,102037.84
2022-12-27T16:30:40.257Z,102043.69
2022-12-27T16:33:23.038Z,102042.41
2022-12-27T16:36:20.722Z,102046.00
2022-12-27T16:39:19.438Z,102050.88
2022-12-27T16:42:08.634Z,102048.78
2022-12-27T16:44:57.770Z,102042.56
2022-12-27T16:48:10.854Z,102045.03
2022-12-27T16:51:02.160Z,102039.09
2022-12-27T16:54:05.624Z,102046.13
2022-12-27T16:56:35.764Z,102050.84
2022-12-27T16:59:03.112Z,102052.50
2022-12-27T17:01:58.505Z,102036.72
2022-12-27T17:04:56.499Z,102035.63
2022-12-27T17:08:13.119Z,102033.66
2022-12-27T17:11:24.889Z,102026.88
2022-12-27T17:13:57.107Z,102028.41
2022-12-27T17:16:29.850Z,102028.72
2022-12-27T17:19:02.378Z,102025.38
2022-12-27T17:21:31.358Z,102034.50
2022-12-27T17:24:05.577Z,102015.41
2022-12-27T17:27:03.255Z,102027.19
2022-12-27T17:30:04.021Z,102019.84
2022-12-27T17:32:49.270Z,102025.09
2022-12-27T17:35:28.870Z,102029.25
2022-12-27T17:38:15.741Z,102028.72
2022-12-27T17:40:58.752Z,102032.88
2022-12-27T17:44:04.780Z,102032.03
2022-12-27T17:46:49.009Z,102028.56
2022-12-27T17:49:17.393Z,102019.00
2022-12-27T17:52:04.864Z,102028.00
2022-12-27T17:54:51.250Z,102017.09
2022-12-27T17:57:38.292Z,102013.19
2022-12-27T18:00:22.215Z,102002.69
2022-12-27T18:02:51.383Z,101998.53
2022-12-27T18:05:20.243Z,102005.16
2022-12-27T18:07:59.075Z,101999.63
2022-12-27T18:10:30.108Z,101990.75
2022-12-27T18:13:01.353Z,101985.50
2022-12-27T18:15:34.013Z,101989.78
2022-12-27T18:18:05.706Z,101982.16
2022-12-27T18:20:36.605Z,101982.16
2022-12-27T18:23:18.149Z,101975.97
2022-12-27T18:26:02.209Z,101973.75
2022-12-27T18:28:33.831Z,101971.81
2022-12-27T18:31:12.167Z,101971.25
2022-12-27T18:33:44.268Z,101968.34
2022-12-27T18:36:20.207Z,101951.88
2022-12-27T18:38:54.625Z,101953.56
2022-12-27T18:41:23.527Z,101946.22
2022-12-27T18:43:58.852Z,101940.41
2022-12-27T18:46:31.287Z,101936.25
2022-12-27T18:48:58.566Z,101942.47
2022-12-27T18:51:35.838Z,101940.69
2022-12-27T18:54:21.975Z,101943.47
2022-12-27T18:56:53.394Z,101939.00
2022-12-27T18:59:26.165Z,101951.63
2022-12-27T19:01:57.611Z,101937.63
2022-12-27T19:04:27.882Z,101943.03
2022-12-27T19:07:08.971Z,101936.25
2022-12-27T19:09:41.016Z,101935.44
2022-12-27T19:12:22.638Z,101928.81
2022-12-27T19:14:50.468Z,101924.06
2022-12-27T19:17:23.432Z,101921.88
2022-12-27T19:19:56.028Z,101916.34
2022-12-27T19:22:35.652Z,101910.53
2022-12-27T19:25:06.973Z,101904.16
2022-12-27T19:27:34.006Z,101904.84
2022-12-27T19:30:00.985Z,101902.78
2022-12-27T19:32:34.652Z,101907.59
2022-12-27T19:35:04.241Z,101899.72
2022-12-27T19:37:33.381Z,101898.34
2022-12-27T19:40:00.703Z,101888.34
2022-12-27T19:42:31.706Z,101882.66
2022-12-27T19:44:58.819Z,101888.59
2022-12-27T19:47:26.522Z,101882.66
2022-12-27T19:49:54.804Z,101887.63
2022-12-27T19:52:25.360Z,101885.16
2022-12-27T19:55:00.172Z,101882.66
2022-12-27T19:57:27.067Z,101879.91
2022-12-27T19:59:53.981Z,101866.44
2022-12-27T20:02:22.080Z,101869.47
2022-12-27T20:04:49.209Z,101872.81
2022-12-27T20:07:23.833Z,101862.97
2022-12-27T20:09:50.749Z,101852.19
2022-12-27T20:12:17.951Z,101860.06
2022-12-27T20:14:44.928Z,101854.13
2022-12-27T20:17:11.789Z,101847.59
2022-12-27T20:19:38.712Z,101846.34
2022-12-27T20:22:05.858Z,101845.34
2022-12-27T20:24:35.007Z,101849.66
2022-12-27T20:27:02.251Z,101837.88
2022-12-27T20:29:30.217Z,101831.75
2022-12-27T20:31:58.053Z,101829.84
2022-12-27T20:34:25.784Z,101825.97
2022-12-27T20:36:55.027Z,101828.19
2022-12-27T20:39:22.101Z,101825.94
2022-12-27T20:41:50.329Z,101830.38
2022-12-27T20:44:17.304Z,101831.16
2022-12-27T20:46:44.221Z,101830.88
2022-12-27T20:49:11.161Z,101830.25
2022-12-27T20:51:38.250Z,101828.03
2022-12-27T20:54:06.150Z,101825.47
2022-12-27T20:56:34.980Z,101824.88
2022-12-27T20:59:03.863Z,101804.78
2022-12-27T21:01:30.865Z,101814.28
2022-12-27T21:03:57.828Z,101807.88
2022-12-27T21:06:27.642Z,101803.69
2022-12-27T21:08:57.764Z,101790.56
2022-12-27T21:11:28.221Z,101789.59
2022-12-27T21:13:55.701Z,101772.03
2022-12-27T21:16:28.560Z,101776.56
2022-12-27T21:18:57.018Z,101772.31
2022-12-27T21:21:28.682Z,101774.50
2022-12-27T21:23:56.540Z,101761.19
2022-12-27T21:26:27.142Z,101755.75
2022-12-27T21:28:54.801Z,101753.66
2022-12-27T21:31:23.486Z,101759.59
2022-12-27T21:33:50.630Z,101754.44
2022-12-27T21:36:20.126Z,101754.91
2022-12-27T21:38:48.108Z,101755.59
2022-12-27T21:41:17.458Z,101742.06
2022-12-27T21:43:45.935Z,101739.44
2022-12-27T21:46:17.451Z,101742.06
2022-12-27T21:48:46.701Z,101738.44
2022-12-27T21:51:17.397Z,101726.41
2022-12-27T21:53:45.635Z,101732.19
2022-12-27T21:56:14.928Z,101726.56
2022-12-27T21:58:43.370Z,101723.84
2022-12-27T22:01:13.816Z,101722.22
2022-12-27T22:03:45.839Z,101728.53
2022-12-27T22:06:15.855Z,101719.50
2022-12-27T22:08:44.341Z,101714.34
2022-12-27T22:11:13.183Z,101721.13
2022-12-27T22:13:40.616Z,101706.09
2022-12-27T22:16:12.819Z,101717.56
2022-12-27T22:18:44.329Z,101711.31
2022-12-27T22:21:15.757Z,101699.56
2022-12-27T22:23:45.978Z,101701.53
2022-12-27T22:26:15.111Z,101691.84
2022-12-27T22:28:42.421Z,101692.44
2022-12-27T22:31:12.232Z,101703.06
2022-12-27T22:33:39.590Z,101694.69
2022-12-27T22:36:10.691Z,101694.69
2022-12-27T22:38:40.617Z,101683.56
2022-12-27T22:41:11.496Z,101684.03
2022-12-27T22:43:39.328Z,101679.22
2022-12-27T22:46:07.839Z,101670.31
2022-12-27T22:48:35.906Z,101664.22
2022-12-27T22:51:07.873Z,101671.00
2022-12-27T22:53:35.108Z,101663.41
2022-12-27T22:56:03.533Z,101660.41
2022-12-27T22:58:31.713Z,101651.53
2022-12-27T23:00:59.365Z,101649.88
2022-12-27T23:03:26.299Z,101638.50
2022-12-27T23:05:57.846Z,101639.84
2022-12-27T23:08:25.286Z,101648.00
2022-12-27T23:10:52.969Z,101637.28
2022-12-27T23:13:23.870Z,101635.72
2022-12-27T23:15:57.280Z,101638.00
2022-12-27T23:18:24.663Z,101628.38
2022-12-27T23:21:20.363Z,101619.34
2022-12-27T23:23:38.603Z,101616.50
2022-12-27T23:26:09.349Z,101606.81
2022-12-27T23:28:38.944Z,101606.28
2022-12-27T23:31:08.425Z,101594.56
2022-12-27T23:33:35.671Z,101606.22
2022-12-27T23:36:02.949Z,101589.78
2022-12-27T23:38:30.006Z,101589.78
2022-12-27T23:40:59.581Z,101579.25
2022-12-27T23:43:51.667Z,101563.13
2022-12-27T23:46:21.347Z,101571.38
2022-12-27T23:48:48.682Z,101561.03
2022-12-27T23:51:16.099Z,101552.00
2022-12-27T23:53:43.448Z,101552.28
2022-12-27T23:56:15.524Z,101543.72
2022-12-27T23:58:43.531Z,101539.06
